TimeEDT,TemperatureF,Dew PointF,Humidity,Sea Level PressureIn,VisibilityMPH,Wind Direction,Wind SpeedMPH,Gust SpeedMPH,PrecipitationIn,Events,Conditions,WindDirDegrees,DateUTC
12:15 AM,66.6,58.1,74,29.91,10.0,North,5.8,-,N/A,,Scattered Clouds,350,2013-09-03 04:15:00
12:35 AM,66.2,58.1,75,29.91,10.0,North,6.9,-,N/A,,Scattered Clouds,350,2013-09-03 04:35:00
12:55 AM,65.8,57.4,74,29.92,10.0,North,6.9,-,N/A,,Clear,350,2013-09-03 04:55:00
1:15 AM,65.5,57.2,75,29.92,10.0,North,8.1,-,N/A,,Clear,360,2013-09-03 05:15:00
1:35 AM,64.8,57.2,76,29.93,10.0,North,8.1,-,N/A,,Clear,360,2013-09-03 05:35:00
1:55 AM,63.5,57.4,80,29.94,10.0,NNW,8.1,-,N/A,,Clear,340,2013-09-03 05:55:00
2:15 AM,62.6,57.2,82,29.93,10.0,NW,4.6,-,N/A,,Clear,310,2013-09-03 06:15:00
2:35 AM,60.4,57.2,89,29.93,10.0,NW,3.5,-,N/A,,Clear,310,2013-09-03 06:35:00
2:55 AM,60.1,57.2,90,29.93,10.0,NW,3.5,-,N/A,,Clear,320,2013-09-03 06:55:00
3:15 AM,59.9,56.7,89,29.94,10.0,NW,5.8,-,N/A,,Clear,320,2013-09-03 07:15:00
3:35 AM,59.4,56.5,90,29.94,10.0,NW,5.8,-,N/A,,Clear,320,2013-09-03 07:35:00
3:55 AM,59.0,56.1,90,29.94,10.0,NW,6.9,-,N/A,,Clear,320,2013-09-03 07:55:00
4:15 AM,58.1,55.6,91,29.94,10.0,NW,6.9,-,N/A,,Clear,310,2013-09-03 08:15:00
4:35 AM,57.7,55.6,92,29.94,10.0,NW,6.9,-,N/A,,Clear,320,2013-09-03 08:35:00
4:55 AM,57.2,55.0,92,29.95,10.0,NW,5.8,-,N/A,,Clear,320,2013-09-03 08:55:00
5:15 AM,56.5,54.7,94,29.95,10.0,NW,5.8,-,N/A,,Clear,320,2013-09-03 09:15:00
5:35 AM,55.8,54.5,96,29.96,10.0,NW,3.5,-,N/A,,Clear,320,2013-09-03 09:35:00
5:55 AM,55.2,54.0,96,29.96,10.0,NW,4.6,-,N/A,,Clear,310,2013-09-03 09:55:00
6:15 AM,54.7,53.8,97,29.97,10.0,NW,5.8,-,N/A,,Clear,320,2013-09-03 10:15:00
6:35 AM,54.9,53.8,96,29.97,10.0,NW,6.9,-,N/A,,Clear,320,2013-09-03 10:35:00
6:55 AM,54.9,53.2,94,29.98,10.0,NNW,8.1,-,N/A,,Clear,330,2013-09-03 10:55:00
7:15 AM,54.7,52.7,93,29.98,10.0,NNW,6.9,-,N/A,,Clear,330,2013-09-03 11:15:00
7:20 AM,55.4,53.6,94,29.98,10.0,NNW,8.1,-,N/A,,Clear,330,2013-09-03 11:20:00
7:50 AM,57.2,53.6,88,29.99,10.0,NNW,8.1,-,N/A,,Clear,340,2013-09-03 11:50:00
8:50 AM,59.0,51.8,77,30.02,10.0,NNW,11.5,-,N/A,,Clear,340,2013-09-03 12:50:00
9:50 AM,62.6,51.8,68,30.03,10.0,NNW,17.3,-,N/A,,Scattered Clouds,330,2013-09-03 13:50:00
10:50 AM,64.4,51.8,64,30.04,10.0,NNW,13.8,-,N/A,,Scattered Clouds,330,2013-09-03 14:50:00
12:50 PM,64.4,51.8,64,30.04,10.0,NW,9.2,-,N/A,,Overcast,320,2013-09-03 16:50:00
2:50 PM,64.4,53.6,68,30.04,10.0,North,8.1,-,N/A,,Overcast,360,2013-09-03 18:50:00
3:47 PM,64.4,53.6,68,30.05,10.0,NW,11.5,19.6,N/A,,Overcast,320,2013-09-03 19:47:00
4:47 PM,66.2,55.4,68,30.04,10.0,NW,9.2,-,N/A,,Overcast,310,2013-09-03 20:47:00
5:35 PM,64.4,53.6,68,30.04,10.0,North,9.2,-,N/A,,Scattered Clouds,10,2013-09-03 21:35:00
5:47 PM,64.4,53.6,68,30.04,10.0,NNW,3.5,-,N/A,,Scattered Clouds,330,2013-09-03 21:47:00
6:47 PM,66.2,55.4,68,30.04,10.0,NNW,8.1,-,N/A,,Scattered Clouds,330,2013-09-03 22:47:00
7:35 PM,63.7,55.0,73,30.04,10.0,NE,3.5,-,N/A,,Clear,40,2013-09-03 23:35:00
7:55 PM,62.1,55.2,78,30.04,10.0,ENE,3.5,-,N/A,,Clear,60,2013-09-03 23:55:00
8:15 PM,61.5,54.5,78,30.04,10.0,ENE,3.5,-,N/A,,Clear,70,2013-09-04 00:15:00
8:35 PM,60.4,54.5,81,30.05,10.0,ENE,3.5,-,N/A,,Clear,60,2013-09-04 00:35:00
8:55 PM,57.6,54.5,90,30.05,10.0,Calm,Calm,-,N/A,,Clear,0,2013-09-04 00:55:00
9:15 PM,58.8,54.0,84,30.06,10.0,Calm,Calm,-,N/A,,Clear,0,2013-09-04 01:15:00
9:35 PM,57.6,53.8,87,30.06,10.0,Calm,Calm,-,N/A,,Clear,0,2013-09-04 01:35:00
9:55 PM,55.9,54.0,93,30.07,10.0,Calm,Calm,-,N/A,,Clear,0,2013-09-04 01:55:00
10:15 PM,54.9,53.4,95,30.07,10.0,Calm,Calm,-,N/A,,Clear,0,2013-09-04 02:15:00
10:35 PM,54.7,53.2,95,30.07,10.0,Calm,Calm,-,N/A,,Clear,0,2013-09-04 02:35:00
10:55 PM,54.3,52.9,95,30.08,10.0,Calm,Calm,-,N/A,,Clear,0,2013-09-04 02:55:00
11:15 PM,54.5,53.6,97,30.08,10.0,Calm,Calm,-,N/A,,Clear,0,2013-09-04 03:15:00
11:35 PM,53.2,52.2,96,30.08,10.0,Calm,Calm,-,N/A,,Clear,0,2013-09-04 03:35:00
11:55 PM,51.4,50.9,98,30.08,10.0,South,3.5,-,N/A,,Clear,190,2013-09-04 03:55:00